sensor_id;sensor_type;location;lat;lon;timestamp;pressure;altitude;pressure_sealevel;temperature;humidity
73594;BME280;64760;53.404;23.498;2023-01-28T00:00:09;100351.38;;;0.29;87.97
73594;BME280;64760;53.404;23.498;2023-01-28T00:02:55;100340.72;;;0.31;87.44
73594;BME280;64760;53.404;23.498;2023-01-28T00:05:22;100342.75;;;0.27;87.68
73594;BME280;64760;53.404;23.498;2023-01-28T00:07:52;100350.91;;;0.35;87.50
73594;BME280;64760;53.404;23.498;2023-01-28T00:10:18;100356.28;;;0.34;87.19
73594;BME280;64760;53.404;23.498;2023-01-28T00:12:44;100354.47;;;0.23;87.47
73594;BME280;64760;53.404;23.498;2023-01-28T00:15:10;100351.59;;;0.26;87.44
73594;BME280;64760;53.404;23.498;2023-01-28T00:17:37;100353.66;;;0.34;87.35
73594;BME280;64760;53.404;23.498;2023-01-28T00:20:04;100350.66;;;0.27;87.33
73594;BME280;64760;53.404;23.498;2023-01-28T00:22:30;100363.13;;;0.36;87.29
73594;BME280;64760;53.404;23.498;2023-01-28T00:24:57;100340.38;;;0.35;87.37
73594;BME280;64760;53.404;23.498;2023-01-28T00:27:25;100343.38;;;0.42;87.28
73594;BME280;64760;53.404;23.498;2023-01-28T00:29:51;100345.66;;;0.46;86.98
73594;BME280;64760;53.404;23.498;2023-01-28T00:32:18;100344.91;;;0.44;86.93
73594;BME280;64760;53.404;23.498;2023-01-28T00:34:45;100341.19;;;0.36;87.33
73594;BME280;64760;53.404;23.498;2023-01-28T00:37:11;100333.16;;;0.37;87.29
73594;BME280;64760;53.404;23.498;2023-01-28T00:39:37;100342.41;;;0.43;87.38
73594;BME280;64760;53.404;23.498;2023-01-28T00:42:03;100342.19;;;0.46;87.47
73594;BME280;64760;53.404;23.498;2023-01-28T00:44:30;100327.19;;;0.46;87.43
73594;BME280;64760;53.404;23.498;2023-01-28T00:46:58;100326.34;;;0.46;87.37
73594;BME280;64760;53.404;23.498;2023-01-28T00:49:26;100332.22;;;0.38;87.64
73594;BME280;64760;53.404;23.498;2023-01-28T00:51:52;100336.88;;;0.35;87.37
73594;BME280;64760;53.404;23.498;2023-01-28T00:54:18;100341.19;;;0.36;87.64
73594;BME280;64760;53.404;23.498;2023-01-28T00:56:44;100346.81;;;0.31;88.04
73594;BME280;64760;53.404;23.498;2023-01-28T00:59:11;100337.06;;;0.21;88.43
73594;BME280;64760;53.404;23.498;2023-01-28T01:01:38;100341.41;;;0.22;88.50
73594;BME280;64760;53.404;23.498;2023-01-28T01:04:04;100336.03;;;0.23;88.52
73594;BME280;64760;53.404;23.498;2023-01-28T01:06:33;100327.50;;;0.20;88.83
73594;BME280;64760;53.404;23.498;2023-01-28T01:09:02;100331.34;;;0.27;88.50
73594;BME280;64760;53.404;23.498;2023-01-28T01:11:29;100325.34;;;0.25;88.01
73594;BME280;64760;53.404;23.498;2023-01-28T01:13:57;100326.19;;;0.25;88.52
73594;BME280;64760;53.404;23.498;2023-01-28T01:16:26;100333.03;;;0.28;88.31
73594;BME280;64760;53.404;23.498;2023-01-28T01:18:54;100327.38;;;0.21;88.06
73594;BME280;64760;53.404;23.498;2023-01-28T01:21:24;100334.00;;;0.27;88.25
73594;BME280;64760;53.404;23.498;2023-01-28T01:23:51;100330.75;;;0.23;88.57
73594;BME280;64760;53.404;23.498;2023-01-28T01:26:20;100327.78;;;0.28;88.57
73594;BME280;64760;53.404;23.498;2023-01-28T01:28:46;100323.81;;;0.33;88.25
73594;BME280;64760;53.404;23.498;2023-01-28T01:31:15;100322.03;;;0.34;87.73
73594;BME280;64760;53.404;23.498;2023-01-28T01:33:44;100325.94;;;0.17;87.90
73594;BME280;64760;53.404;23.498;2023-01-28T01:36:13;100340.22;;;0.26;87.95
73594;BME280;64760;53.404;23.498;2023-01-28T01:38:40;100339.84;;;0.19;88.22
73594;BME280;64760;53.404;23.498;2023-01-28T01:41:08;100336.13;;;0.22;88.52
73594;BME280;64760;53.404;23.498;2023-01-28T01:46:50;100329.75;;;0.13;88.52
73594;BME280;64760;53.404;23.498;2023-01-28T01:49:24;100330.00;;;0.10;88.19
73594;BME280;64760;53.404;23.498;2023-01-28T01:51:55;100326.63;;;0.08;88.21
73594;BME280;64760;53.404;23.498;2023-01-28T01:54:23;100322.31;;;0.07;88.53
73594;BME280;64760;53.404;23.498;2023-01-28T01:56:52;100317.31;;;0.15;88.51
73594;BME280;64760;53.404;23.498;2023-01-28T01:59:23;100316.81;;;0.10;88.66
73594;BME280;64760;53.404;23.498;2023-01-28T02:01:51;100315.38;;;0.17;88.45
73594;BME280;64760;53.404;23.498;2023-01-28T02:04:22;100310.84;;;0.19;88.46
73594;BME280;64760;53.404;23.498;2023-01-28T02:06:50;100312.16;;;0.25;88.71
73594;BME280;64760;53.404;23.498;2023-01-28T02:09:30;100312.16;;;0.14;88.56
73594;BME280;64760;53.404;23.498;2023-01-28T02:12:16;100311.69;;;0.20;88.52
73594;BME280;64760;53.404;23.498;2023-01-28T02:14:58;100307.22;;;0.09;88.28
73594;BME280;64760;53.404;23.498;2023-01-28T02:17:26;100313.22;;;0.11;88.71
73594;BME280;64760;53.404;23.498;2023-01-28T02:22:28;100313.41;;;0.32;87.95
73594;BME280;64760;53.404;23.498;2023-01-28T02:25:18;100309.78;;;0.44;87.41
73594;BME280;64760;53.404;23.498;2023-01-28T02:31:18;100310.63;;;0.33;87.36
73594;BME280;64760;53.404;23.498;2023-01-28T02:39:23;100312.03;;;0.15;87.21
73594;BME280;64760;53.404;23.498;2023-01-28T02:41:56;100300.03;;;0.00;87.46
73594;BME280;64760;53.404;23.498;2023-01-28T02:44:24;100308.16;;;0.08;87.71
73594;BME280;64760;53.404;23.498;2023-01-28T02:46:52;100315.63;;;0.14;87.68
73594;BME280;64760;53.404;23.498;2023-01-28T02:50:07;100313.22;;;0.11;87.62
73594;BME280;64760;53.404;23.498;2023-01-28T02:58:55;100323.50;;;0.03;87.93
73594;BME280;64760;53.404;23.498;2023-01-28T03:01:35;100316.31;;;0.05;88.02
73594;BME280;64760;53.404;23.498;2023-01-28T03:04:10;100315.63;;;0.14;87.88
73594;BME280;64760;53.404;23.498;2023-01-28T03:06:44;100316.13;;;0.19;87.53
73594;BME280;64760;53.404;23.498;2023-01-28T03:09:14;100320.06;;;0.14;87.32
73594;BME280;64760;53.404;23.498;2023-01-28T03:14:40;100321.84;;;0.13;87.36
73594;BME280;64760;53.404;23.498;2023-01-28T03:17:31;100322.59;;;0.15;87.44
73594;BME280;64760;53.404;23.498;2023-01-28T03:20:20;100315.63;;;0.14;87.64
73594;BME280;64760;53.404;23.498;2023-01-28T03:23:12;100318.75;;;0.19;87.33
73594;BME280;64760;53.404;23.498;2023-01-28T03:26:00;100312.75;;;0.17;87.67
73594;BME280;64760;53.404;23.498;2023-01-28T03:28:48;100317.06;;;0.18;87.42
73594;BME280;64760;53.404;23.498;2023-01-28T03:31:36;100318.97;;;0.16;87.35
73594;BME280;64760;53.404;23.498;2023-01-28T03:34:21;100316.44;;;0.04;88.01
73594;BME280;64760;53.404;23.498;2023-01-28T03:37:07;100315.63;;;0.14;88.04
73594;BME280;64760;53.404;23.498;2023-01-28T03:39:44;100314.69;;;0.15;87.54
73594;BME280;64760;53.404;23.498;2023-01-28T03:42:14;100317.69;;;0.22;87.78
73594;BME280;64760;53.404;23.498;2023-01-28T03:44:51;100326.09;;;0.27;87.92
73594;BME280;64760;53.404;23.498;2023-01-28T03:47:21;100315.78;;;0.24;87.54
73594;BME280;64760;53.404;23.498;2023-01-28T03:49:50;100330.78;;;0.34;87.89
73594;BME280;64760;53.404;23.498;2023-01-28T03:52:28;100325.59;;;0.33;87.72
73594;BME280;64760;53.404;23.498;2023-01-28T03:55:06;100322.00;;;0.23;88.14
73594;BME280;64760;53.404;23.498;2023-01-28T03:57:40;100309.06;;;0.20;88.75
73594;BME280;64760;53.404;23.498;2023-01-28T04:00:07;100322.34;;;0.18;88.74
73594;BME280;64760;53.404;23.498;2023-01-28T04:02:40;100323.28;;;0.17;88.85
73594;BME280;64760;53.404;23.498;2023-01-28T04:05:10;100324.03;;;0.19;89.15
73594;BME280;64760;53.404;23.498;2023-01-28T04:07:45;100325.31;;;0.14;89.47
73594;BME280;64760;53.404;23.498;2023-01-28T04:10:17;100330.00;;;0.21;89.48
73594;BME280;64760;53.404;23.498;2023-01-28T04:12:55;100326.09;;;0.27;89.19
73594;BME280;64760;53.404;23.498;2023-01-28T04:15:23;100339.13;;;0.28;89.21
73594;BME280;64760;53.404;23.498;2023-01-28T04:17:50;100324.81;;;0.09;88.97
73594;BME280;64760;53.404;23.498;2023-01-28T04:20:35;100327.59;;;0.07;88.43
73594;BME280;64760;53.404;23.498;2023-01-28T04:23:02;100332.53;;;0.12;88.17
73594;BME280;64760;53.404;23.498;2023-01-28T04:25:30;100336.56;;;0.05;87.66
73594;BME280;64760;53.404;23.498;2023-01-28T04:27:57;100341.44;;;-0.02;87.40
73594;BME280;64760;53.404;23.498;2023-01-28T04:30:26;100329.03;;;0.00;87.42
73594;BME280;64760;53.404;23.498;2023-01-28T04:33:12;100333.44;;;-0.01;87.16
73594;BME280;64760;53.404;23.498;2023-01-28T04:36:00;100332.66;;;-0.14;88.06
73594;BME280;64760;53.404;23.498;2023-01-28T04:38:45;100334.47;;;-0.14;88.02
73594;BME280;64760;53.404;23.498;2023-01-28T04:41:37;100341.91;;;-0.08;87.58
73594;BME280;64760;53.404;23.498;2023-01-28T04:44:12;100339.72;;;-0.14;87.43
73594;BME280;64760;53.404;23.498;2023-01-28T04:46:58;100331.44;;;-0.21;87.52
73594;BME280;64760;53.404;23.498;2023-01-28T04:49:53;100331.09;;;-0.16;87.33
73594;BME280;64760;53.404;23.498;2023-01-28T04:52:41;100334.28;;;-0.24;87.14
73594;BME280;64760;53.404;23.498;2023-01-28T04:55:18;100331.50;;;-0.33;87.22
73594;BME280;64760;53.404;23.498;2023-01-28T04:57:45;100334.19;;;-0.22;87.37
73594;BME280;64760;53.404;23.498;2023-01-28T05:00:13;100340.41;;;-0.23;87.03
73594;BME280;64760;53.404;23.498;2023-01-28T05:02:40;100328.91;;;-0.22;86.90
73594;BME280;64760;53.404;23.498;2023-01-28T05:05:07;100338.00;;;-0.26;86.79
73594;BME280;64760;53.404;23.498;2023-01-28T05:07:50;100332.81;;;-0.28;86.57
73594;BME280;64760;53.404;23.498;2023-01-28T05:10:17;100339.34;;;-0.21;86.42
73594;BME280;64760;53.404;23.498;2023-01-28T05:12:45;100347.69;;;-0.27;86.92
73594;BME280;64760;53.404;23.498;2023-01-28T05:15:12;100341.81;;;-0.30;86.76
73594;BME280;64760;53.404;23.498;2023-01-28T05:17:38;100338.47;;;-0.32;86.01
73594;BME280;64760;53.404;23.498;2023-01-28T05:20:05;100343.94;;;-0.35;85.71
73594;BME280;64760;53.404;23.498;2023-01-28T05:22:31;100358.47;;;-0.30;85.49
73594;BME280;64760;53.404;23.498;2023-01-28T05:25:24;100351.28;;;-0.28;85.68
73594;BME280;64760;53.404;23.498;2023-01-28T05:27:51;100344.53;;;-0.32;85.71
73594;BME280;64760;53.404;23.498;2023-01-28T05:30:19;100350.09;;;-0.24;86.11
73594;BME280;64760;53.404;23.498;2023-01-28T05:32:45;100358.13;;;-0.25;86.04
73594;BME280;64760;53.404;23.498;2023-01-28T05:35:14;100356.66;;;-0.29;85.52
73594;BME280;64760;53.404;23.498;2023-01-28T05:37:41;100357.19;;;-0.24;85.15
73594;BME280;64760;53.404;23.498;2023-01-28T05:40:08;100357.19;;;-0.24;85.38
73594;BME280;64760;53.404;23.498;2023-01-28T05:42:34;100362.09;;;-0.20;85.67
73594;BME280;64760;53.404;23.498;2023-01-28T05:45:23;100363.91;;;-0.20;85.29
73594;BME280;64760;53.404;23.498;2023-01-28T05:48:08;100353.56;;;-0.23;85.04
73594;BME280;64760;53.404;23.498;2023-01-28T05:51:07;100358.00;;;-0.24;83.75
73594;BME280;64760;53.404;23.498;2023-01-28T05:53:36;100368.00;;;-0.16;81.79
73594;BME280;64760;53.404;23.498;2023-01-28T05:56:02;100357.59;;;-0.30;80.82
73594;BME280;64760;53.404;23.498;2023-01-28T05:58:31;100350.66;;;-0.31;80.86
73594;BME280;64760;53.404;23.498;2023-01-28T06:01:01;100362.22;;;-0.21;80.99
73594;BME280;64760;53.404;23.498;2023-01-28T06:03:36;100357.00;;;-0.34;80.53
73594;BME280;64760;53.404;23.498;2023-01-28T06:06:02;100374.88;;;-0.26;81.25
73594;BME280;64760;53.404;23.498;2023-01-28T06:08:30;100367.06;;;-0.28;81.21
73594;BME280;64760;53.404;23.498;2023-01-28T06:10:58;100363.06;;;-0.21;81.24
73594;BME280;64760;53.404;23.498;2023-01-28T06:13:24;100366.53;;;-0.20;81.40
73594;BME280;64760;53.404;23.498;2023-01-28T06:16:09;100368.69;;;-0.14;81.13
73594;BME280;64760;53.404;23.498;2023-01-28T06:18:35;100365.56;;;-0.19;80.41
73594;BME280;64760;53.404;23.498;2023-01-28T06:21:02;100364.34;;;-0.26;80.01
73594;BME280;64760;53.404;23.498;2023-01-28T06:23:28;100378.97;;;-0.22;80.41
73594;BME280;64760;53.404;23.498;2023-01-28T06:25:56;100375.16;;;-0.18;80.77
73594;BME280;64760;53.404;23.498;2023-01-28T06:28:23;100370.97;;;-0.21;81.59
73594;BME280;64760;53.404;23.498;2023-01-28T06:30:51;100369.16;;;-0.20;81.17
73594;BME280;64760;53.404;23.498;2023-01-28T06:33:19;100371.44;;;-0.16;80.88
73594;BME280;64760;53.404;23.498;2023-01-28T06:35:45;100372.41;;;-0.17;80.62
73594;BME280;64760;53.404;23.498;2023-01-28T06:38:12;100384.50;;;-0.14;80.95
73594;BME280;64760;53.404;23.498;2023-01-28T06:40:39;100371.09;;;-0.11;80.95
73594;BME280;64760;53.404;23.498;2023-01-28T06:43:05;100381.44;;;-0.08;81.21
73594;BME280;64760;53.404;23.498;2023-01-28T06:45:32;100388.50;;;-0.09;81.67
73594;BME280;64760;53.404;23.498;2023-01-28T06:47:58;100382.63;;;-0.12;82.03
73594;BME280;64760;53.404;23.498;2023-01-28T06:50:25;100380.88;;;-0.24;80.96
73594;BME280;64760;53.404;23.498;2023-01-28T06:52:51;100383.91;;;-0.18;81.32
73594;BME280;64760;53.404;23.498;2023-01-28T06:55:17;100385.97;;;-0.10;80.77
73594;BME280;64760;53.404;23.498;2023-01-28T06:57:44;100385.88;;;-0.09;81.04
73594;BME280;64760;53.404;23.498;2023-01-28T07:00:11;100387.66;;;-0.09;81.00
73594;BME280;64760;53.404;23.498;2023-01-28T07:02:39;100395.09;;;-0.03;80.51
73594;BME280;64760;53.404;23.498;2023-01-28T07:05:06;100402.81;;;0.00;80.60
73594;BME280;64760;53.404;23.498;2023-01-28T07:07:34;100394.38;;;-0.05;80.26
73594;BME280;64760;53.404;23.498;2023-01-28T07:10:02;100386.53;;;0.06;80.33
73594;BME280;64760;53.404;23.498;2023-01-28T07:12:28;100398.75;;;0.07;79.73
73594;BME280;64760;53.404;23.498;2023-01-28T07:14:57;100391.78;;;0.06;80.17
73594;BME280;64760;53.404;23.498;2023-01-28T07:17:25;100397.53;;;0.00;80.30
73594;BME280;64760;53.404;23.498;2023-01-28T07:19:51;100395.59;;;0.02;80.36
73594;BME280;64760;53.404;23.498;2023-01-28T07:22:17;100404.72;;;0.09;80.69
73594;BME280;64760;53.404;23.498;2023-01-28T07:24:44;100393.00;;;0.13;80.21
73594;BME280;64760;53.404;23.498;2023-01-28T07:27:11;100393.69;;;0.04;80.49
73594;BME280;64760;53.404;23.498;2023-01-28T07:29:37;100400.88;;;0.02;80.39
73594;BME280;64760;53.404;23.498;2023-01-28T07:32:04;100395.00;;;-0.02;80.47
73594;BME280;64760;53.404;23.498;2023-01-28T07:34:32;100404.22;;;0.04;80.37
73594;BME280;64760;53.404;23.498;2023-01-28T07:36:59;100398.50;;;0.10;80.61
73594;BME280;64760;53.404;23.498;2023-01-28T07:39:26;100408.28;;;-0.03;80.22
73594;BME280;64760;53.404;23.498;2023-01-28T07:41:53;100418.16;;;0.06;80.54
73594;BME280;64760;53.404;23.498;2023-01-28T07:44:35;100406.84;;;0.04;80.53
73594;BME280;64760;53.404;23.498;2023-01-28T07:47:03;100400.63;;;0.05;79.69
73594;BME280;64760;53.404;23.498;2023-01-28T07:49:30;100405.31;;;0.02;79.16
73594;BME280;64760;53.404;23.498;2023-01-28T07:51:58;100398.00;;;0.05;79.07
73594;BME280;64760;53.404;23.498;2023-01-28T07:54:24;100402.84;;;0.11;79.24
73594;BME280;64760;53.404;23.498;2023-01-28T07:56:50;100401.16;;;0.10;79.42
73594;BME280;64760;53.404;23.498;2023-01-28T07:59:17;100405.94;;;0.16;79.40
73594;BME280;64760;53.404;23.498;2023-01-28T08:01:43;100404.28;;;0.15;79.14
73594;BME280;64760;53.404;23.498;2023-01-28T08:04:10;100386.03;;;0.12;79.32
73594;BME280;64760;53.404;23.498;2023-01-28T08:06:36;100393.41;;;0.20;79.33
73594;BME280;64760;53.404;23.498;2023-01-28T08:09:06;100398.41;;;0.12;79.60
73594;BME280;64760;53.404;23.498;2023-01-28T08:11:36;100383.88;;;0.06;79.99
73594;BME280;64760;53.404;23.498;2023-01-28T08:14:03;100399.22;;;0.12;79.89
73594;BME280;64760;53.404;23.498;2023-01-28T08:16:30;100393.84;;;0.14;80.11
73594;BME280;64760;53.404;23.498;2023-01-28T08:18:56;100392.56;;;0.19;80.12
73594;BME280;64760;53.404;23.498;2023-01-28T08:21:23;100405.84;;;0.18;79.63
73594;BME280;64760;53.404;23.498;2023-01-28T08:23:49;100400.53;;;0.07;79.63
73594;BME280;64760;53.404;23.498;2023-01-28T08:26:15;100393.56;;;0.06;79.77
73594;BME280;64760;53.404;23.498;2023-01-28T08:28:42;100405.13;;;0.16;79.40
73594;BME280;64760;53.404;23.498;2023-01-28T08:31:08;100395.69;;;0.24;79.13
73594;BME280;64760;53.404;23.498;2023-01-28T08:33:34;100403.25;;;0.29;78.93
73594;BME280;64760;53.404;23.498;2023-01-28T08:36:04;100397.09;;;0.17;78.18
73594;BME280;64760;53.404;23.498;2023-01-28T08:38:30;100396.41;;;0.26;78.25
73594;BME280;64760;53.404;23.498;2023-01-28T08:40:57;100399.41;;;0.22;78.79
73594;BME280;64760;53.404;23.498;2023-01-28T08:43:25;100402.19;;;0.31;78.67
73594;BME280;64760;53.404;23.498;2023-01-28T08:45:51;100400.50;;;0.30;78.63
73594;BME280;64760;53.404;23.498;2023-01-28T08:48:19;100404.59;;;0.34;79.00
73594;BME280;64760;53.404;23.498;2023-01-28T08:50:45;100389.28;;;0.39;79.44
73594;BME280;64760;53.404;23.498;2023-01-28T08:53:14;100400.28;;;0.44;78.80
73594;BME280;64760;53.404;23.498;2023-01-28T08:55:41;100396.69;;;0.34;78.72
73594;BME280;64760;53.404;23.498;2023-01-28T08:58:10;100403.84;;;0.32;79.43
73594;BME280;64760;53.404;23.498;2023-01-28T09:00:38;100402.41;;;0.28;78.94
73594;BME280;64760;53.404;23.498;2023-01-28T09:03:05;100400.34;;;0.21;79.26
73594;BME280;64760;53.404;23.498;2023-01-28T09:05:33;100406.47;;;0.21;79.42
73594;BME280;64760;53.404;23.498;2023-01-28T09:08:04;100411.63;;;0.23;79.36
73594;BME280;64760;53.404;23.498;2023-01-28T09:10:32;100409.44;;;0.17;79.03
73594;BME280;64760;53.404;23.498;2023-01-28T09:12:58;100406.41;;;0.10;79.91
73594;BME280;64760;53.404;23.498;2023-01-28T09:15:29;100402.84;;;0.11;78.40
73594;BME280;64760;53.404;23.498;2023-01-28T09:17:58;100413.41;;;0.22;78.18
73594;BME280;64760;53.404;23.498;2023-01-28T09:20:25;100409.25;;;0.31;78.32
73594;BME280;64760;53.404;23.498;2023-01-28T09:22:51;100400.03;;;0.36;77.89
73594;BME280;64760;53.404;23.498;2023-01-28T09:25:18;100407.09;;;0.36;77.33
73594;BME280;64760;53.404;23.498;2023-01-28T09:27:44;100405.69;;;0.32;77.00
73594;BME280;64760;53.404;23.498;2023-01-28T09:30:10;100405.69;;;0.43;76.95
73594;BME280;64760;53.404;23.498;2023-01-28T09:32:38;100403.53;;;0.48;76.99
73594;BME280;64760;53.404;23.498;2023-01-28T09:35:05;100402.59;;;0.49;76.67
73594;BME280;64760;53.404;23.498;2023-01-28T09:37:31;100406.88;;;0.39;75.81
73594;BME280;64760;53.404;23.498;2023-01-28T09:39:57;100401.53;;;0.52;76.20
73594;BME280;64760;53.404;23.498;2023-01-28T09:42:54;100398.75;;;0.42;75.73
73594;BME280;64760;53.404;23.498;2023-01-28T09:47:59;100396.00;;;0.43;74.70
73594;BME280;64760;53.404;23.498;2023-01-28T09:50:39;100408.38;;;0.54;74.68
73594;BME280;64760;53.404;23.498;2023-01-28T09:58:25;100401.03;;;0.46;73.73
73594;BME280;64760;53.404;23.498;2023-01-28T10:01:24;100394.56;;;0.51;73.43
73594;BME280;64760;53.404;23.498;2023-01-28T10:09:48;100395.25;;;0.41;74.16
73594;BME280;64760;53.404;23.498;2023-01-28T10:12:57;100392.88;;;0.50;73.81
73594;BME280;64760;53.404;23.498;2023-01-28T10:15:34;100387.03;;;0.57;74.04
73594;BME280;64760;53.404;23.498;2023-01-28T10:18:10;100374.19;;;0.53;74.26
73594;BME280;64760;53.404;23.498;2023-01-28T10:20:44;100381.28;;;0.63;74.35
73594;BME280;64760;53.404;23.498;2023-01-28T10:26:38;100386.44;;;0.65;72.92
73594;BME280;64760;53.404;23.498;2023-01-28T10:29:12;100382.59;;;0.69;72.92
73594;BME280;64760;53.404;23.498;2023-01-28T10:31:49;100374.78;;;0.56;73.29
73594;BME280;64760;53.404;23.498;2023-01-28T10:34:18;100376.81;;;0.53;73.44
73594;BME280;64760;53.404;23.498;2023-01-28T10:36:45;100377.03;;;0.38;73.75
73594;BME280;64760;53.404;23.498;2023-01-28T10:39:14;100373.47;;;0.51;73.98
73594;BME280;64760;53.404;23.498;2023-01-28T10:41:41;100368.91;;;0.53;74.09
73594;BME280;64760;53.404;23.498;2023-01-28T10:44:17;100367.13;;;0.64;73.93
73594;BME280;64760;53.404;23.498;2023-01-28T10:46:47;100370.50;;;0.66;74.02
73594;BME280;64760;53.404;23.498;2023-01-28T10:49:24;100366.53;;;0.61;73.45
73594;BME280;64760;53.404;23.498;2023-01-28T10:51:52;100366.91;;;0.67;73.64
73594;BME280;64760;53.404;23.498;2023-01-28T10:54:27;100361.75;;;0.77;73.59
73594;BME280;64760;53.404;23.498;2023-01-28T10:56:57;100366.44;;;0.84;73.63
73594;BME280;64760;53.404;23.498;2023-01-28T10:59:33;100362.00;;;0.85;72.82
73594;BME280;64760;53.404;23.498;2023-01-28T11:02:04;100366.06;;;0.89;73.20
73594;BME280;64760;53.404;23.498;2023-01-28T11:04:35;100366.56;;;0.83;73.26
73594;BME280;64760;53.404;23.498;2023-01-28T11:07:13;100352.78;;;0.79;73.07
73594;BME280;64760;53.404;23.498;2023-01-28T11:09:45;100350.72;;;0.83;73.31
73594;BME280;64760;53.404;23.498;2023-01-28T11:12:19;100342.56;;;0.86;73.76
73594;BME280;64760;53.404;23.498;2023-01-28T11:14:55;100341.13;;;0.93;73.94
73594;BME280;64760;53.404;23.498;2023-01-28T11:17:23;100345.22;;;0.86;73.26
73594;BME280;64760;53.404;23.498;2023-01-28T11:19:52;100337.66;;;0.81;73.35
73594;BME280;64760;53.404;23.498;2023-01-28T11:22:32;100341.72;;;0.85;73.51
73594;BME280;64760;53.404;23.498;2023-01-28T11:25:05;100334.28;;;0.90;74.06
73594;BME280;64760;53.404;23.498;2023-01-28T11:27:32;100336.34;;;0.98;73.83
73594;BME280;64760;53.404;23.498;2023-01-28T11:30:00;100335.50;;;0.98;73.23
73594;BME280;64760;53.404;23.498;2023-01-28T11:32:30;100327.34;;;0.89;74.22
73594;BME280;64760;53.404;23.498;2023-01-28T11:34:57;100328.41;;;0.98;73.91
73594;BME280;64760;53.404;23.498;2023-01-28T11:37:26;100320.84;;;0.93;73.65
73594;BME280;64760;53.404;23.498;2023-01-28T11:40:02;100331.06;;;0.98;73.26
73594;BME280;64760;53.404;23.498;2023-01-28T11:42:29;100332.59;;;1.01;73.36
73594;BME280;64760;53.404;23.498;2023-01-28T11:44:56;100321.78;;;1.04;73.86
73594;BME280;64760;53.404;23.498;2023-01-28T11:47:46;100326.97;;;1.05;73.74
73594;BME280;64760;53.404;23.498;2023-01-28T12:01:23;100329.13;;;0.89;74.79
73594;BME280;64760;53.404;23.498;2023-01-28T12:07:10;100324.34;;;0.83;75.30
73594;BME280;64760;53.404;23.498;2023-01-28T12:26:13;100322.31;;;1.83;77.94
73594;BME280;64760;53.404;23.498;2023-01-28T12:34:55;100323.00;;;1.65;71.68
73594;BME280;64760;53.404;23.498;2023-01-28T12:40:19;100310.75;;;1.10;73.13
73594;BME280;64760;53.404;23.498;2023-01-28T12:43:02;100300.59;;;0.94;74.16
73594;BME280;64760;53.404;23.498;2023-01-28T12:45:48;100303.94;;;0.96;74.49
73594;BME280;64760;53.404;23.498;2023-01-28T12:48:27;100312.44;;;0.88;73.65
73594;BME280;64760;53.404;23.498;2023-01-28T12:53:37;100305.13;;;0.81;74.57
73594;BME280;64760;53.404;23.498;2023-01-28T12:56:19;100300.38;;;0.75;74.75
73594;BME280;64760;53.404;23.498;2023-01-28T12:58:53;100308.13;;;0.76;74.73
73594;BME280;64760;53.404;23.498;2023-01-28T13:01:43;100311.38;;;0.69;74.77
73594;BME280;64760;53.404;23.498;2023-01-28T13:06:46;100311.63;;;0.66;74.88
73594;BME280;64760;53.404;23.498;2023-01-28T13:09:19;100300.72;;;0.59;75.09
73594;BME280;64760;53.404;23.498;2023-01-28T13:11:48;100305.75;;;0.62;75.19
73594;BME280;64760;53.404;23.498;2023-01-28T13:14:16;100294.59;;;0.81;74.50
73594;BME280;64760;53.404;23.498;2023-01-28T13:16:43;100286.06;;;0.88;73.46
73594;BME280;64760;53.404;23.498;2023-01-28T13:21:45;100300.56;;;0.72;74.26
73594;BME280;64760;53.404;23.498;2023-01-28T13:26:48;100294.72;;;0.46;75.29
73594;BME280;64760;53.404;23.498;2023-01-28T13:31:53;100293.88;;;0.45;76.64
73594;BME280;64760;53.404;23.498;2023-01-28T13:36:52;100295.56;;;0.58;75.74
73594;BME280;64760;53.404;23.498;2023-01-28T13:39:24;100297.25;;;0.47;75.45
73594;BME280;64760;53.404;23.498;2023-01-28T13:41:53;100295.31;;;0.38;76.24
73594;BME280;64760;53.404;23.498;2023-01-28T13:44:28;100293.50;;;0.28;77.20
73594;BME280;64760;53.404;23.498;2023-01-28T13:47:13;100293.09;;;0.21;77.19
73594;BME280;64760;53.404;23.498;2023-01-28T13:50:10;100283.91;;;0.16;77.73
73594;BME280;64760;53.404;23.498;2023-01-28T13:52:36;100278.50;;;0.17;78.07
73594;BME280;64760;53.404;23.498;2023-01-28T14:09:01;100287.72;;;0.23;77.75
73594;BME280;64760;53.404;23.498;2023-01-28T14:14:25;100281.81;;;0.08;78.34
73594;BME280;64760;53.404;23.498;2023-01-28T14:19:39;100279.09;;;0.21;76.85
73594;BME280;64760;53.404;23.498;2023-01-28T14:22:09;100281.81;;;0.08;77.31
73594;BME280;64760;53.404;23.498;2023-01-28T14:24:41;100282.31;;;0.13;78.00
73594;BME280;64760;53.404;23.498;2023-01-28T14:32:25;100272.97;;;0.20;77.99
73594;BME280;64760;53.404;23.498;2023-01-28T14:34:55;100274.53;;;0.12;78.22
73594;BME280;64760;53.404;23.498;2023-01-28T14:37:27;100269.47;;;-0.03;78.49
73594;BME280;64760;53.404;23.498;2023-01-28T14:40:03;100277.00;;;-0.09;79.07
73594;BME280;64760;53.404;23.498;2023-01-28T14:42:37;100273.41;;;-0.08;79.30
73594;BME280;64760;53.404;23.498;2023-01-28T15:01:58;100279.16;;;-0.03;79.59
73594;BME280;64760;53.404;23.498;2023-01-28T15:04:30;100280.69;;;-0.12;79.76
73594;BME280;64760;53.404;23.498;2023-01-28T15:07:01;100284.75;;;-0.19;80.14
73594;BME280;64760;53.404;23.498;2023-01-28T15:09:27;100282.34;;;-0.22;80.47
73594;BME280;64760;53.404;23.498;2023-01-28T15:11:56;100282.56;;;0.10;78.98
73594;BME280;64760;53.404;23.498;2023-01-28T15:16:52;100284.22;;;0.00;79.60
73594;BME280;64760;53.404;23.498;2023-01-28T15:19:25;100287.56;;;0.02;79.88
73594;BME280;64760;53.404;23.498;2023-01-28T15:21:56;100286.47;;;0.05;79.80
73594;BME280;64760;53.404;23.498;2023-01-28T15:24:24;100287.56;;;0.02;79.79
73594;BME280;64760;53.404;23.498;2023-01-28T15:26:51;100284.09;;;0.02;79.60
73594;BME280;64760;53.404;23.498;2023-01-28T15:29:38;100280.13;;;-0.04;80.03